OEMA/MED METAR and TAF weather

Enter ICAO airport designator
Station Type Date Time Source
OEMA METAR 2019/02/16 01:00 UTC NOAA

OEMA 160100Z 31008KT CAVOK 13/M02 Q1018 NOSIG


Station Type Date Time Source
OEMA Decoded METAR 2019/02/16 01:00 UTC NOAA

Madinah, Saudi Arabia (OEMA) 24-33N 039-42E 636M
Feb 15, 2019 - 08:00 PM EST / 2019.02.16 0100 UTC
Wind: from the NW (310 degrees) at 9 MPH (8 KT):0
Visibility: greater than 7 mile(s):0
Temperature: 55 F (13 C)
Dew Point: 28 F (-2 C)
Relative Humidity: 35%
Pressure (altimeter): 30.06 in. Hg (1018 hPa)
ob: OEMA 160100Z 31008KT CAVOK 13/M02 Q1018 NOSIG
cycle: 1

Station Type Date Time Source
OEMA TAF 2019/02/15 18:18 UTC NOAA

TAF OEMA 151700Z 1518/1624 28010KT 8000 FEW045
BECMG 1600/1602 VRB03KT
BECMG 1610/1612 24010KT


Example: see airport list